Time;durP1;ratioP1;P1;durP2;ratioP2;P2;SDS_P1;SDS_P2;PMS_P1;PMS_P2;Temp;Humidity;BMP_temperature;BMP_pressure;BME280_temperature;BME280_humidity;BME280_pressure;Samples;Min_cycle;Max_cycle;Signal;HPM_P1;HPM_P2
2022/09/07 00:02:10;;;;;;;19.73;17.83;;;20.30;99.90;;;;;;4977285;28;20065;-69
2022/09/07 00:04:35;;;;;;;19.37;17.23;;;20.30;99.90;;;;;;4993894;28;20113;-69
2022/09/07 00:07:01;;;;;;;20.47;18.40;;;20.20;99.90;;;;;;4994144;28;20120;-69
2022/09/07 00:09:27;;;;;;;21.53;18.07;;;20.20;99.90;;;;;;4994316;28;20050;-70
2022/09/07 00:11:53;;;;;;;20.03;18.07;;;20.20;99.90;;;;;;4994269;28;20125;-69
2022/09/07 00:14:19;;;;;;;19.37;17.33;;;20.20;99.90;;;;;;4993289;28;20185;-69
2022/09/07 00:16:44;;;;;;;18.07;16.17;;;20.20;99.90;;;;;;4994206;28;20050;-69
2022/09/07 00:19:10;;;;;;;18.97;17.23;;;20.20;99.90;;;;;;4993974;28;20050;-69
2022/09/07 00:21:36;;;;;;;18.97;17.13;;;20.10;99.90;;;;;;4994422;28;20054;-69
2022/09/07 00:24:02;;;;;;;17.67;15.97;;;20.10;99.90;;;;;;4993998;28;20517;-69
2022/09/07 00:26:29;;;;;;;19.33;16.70;;;20.10;99.90;;;;;;4994056;28;20054;-70
2022/09/07 00:28:57;;;;;;;21.13;18.87;;;20.00;99.90;;;;;;4994033;28;20047;-69
2022/09/07 00:31:23;;;;;;;18.43;16.47;;;20.00;99.90;;;;;;4994002;28;20046;-69
2022/09/07 00:33:51;;;;;;;19.87;17.87;;;20.00;99.90;;;;;;4993835;28;20090;-69
2022/09/07 00:36:18;;;;;;;22.17;20.00;;;20.00;99.90;;;;;;4993034;28;20058;-69
2022/09/07 00:38:44;;;;;;;19.20;17.17;;;;;;;;;;4993963;28;20450;-69
2022/09/07 00:41:11;;;;;;;21.50;19.30;;;20.00;99.90;;;;;;4994014;28;20149;-69
2022/09/07 00:43:49;;;;;;;21.33;18.97;;;19.90;99.90;;;;;;4994344;28;20050;-70
2022/09/07 00:46:18;;;;;;;21.17;19.10;;;19.80;99.90;;;;;;4994166;28;20073;-69
2022/09/07 00:48:50;;;;;;;21.97;19.77;;;19.80;99.90;;;;;;4992955;28;20057;-69
2022/09/07 00:51:34;;;;;;;21.10;18.93;;;19.80;99.90;;;;;;4993217;28;20105;-69
2022/09/07 00:54:04;;;;;;;21.53;19.43;;;19.80;99.90;;;;;;4994789;28;20082;-69
2022/09/07 00:56:34;;;;;;;21.47;19.27;;;19.80;99.90;;;;;;4994049;28;20129;-70
2022/09/07 00:59:00;;;;;;;20.63;18.63;;;19.80;99.90;;;;;;4994730;28;20050;-69
2022/09/07 01:01:26;;;;;;;23.77;21.37;;;19.80;99.90;;;;;;4993942;28;20081;-69
2022/09/07 01:03:55;;;;;;;23.37;20.97;;;19.80;99.90;;;;;;4993795;28;20042;-69
2022/09/07 01:06:26;;;;;;;22.17;20.07;;;19.80;99.90;;;;;;4993849;28;20170;-69
2022/09/07 01:08:54;;;;;;;21.53;19.33;;;19.80;99.90;;;;;;4994276;28;20485;-69
2022/09/07 01:11:22;;;;;;;23.20;20.83;;;19.80;99.90;;;;;;4993802;28;20042;-69
2022/09/07 01:13:49;;;;;;;20.83;18.77;;;19.80;99.90;;;;;;4993739;28;20598;-69
2022/09/07 01:16:34;;;;;;;19.53;17.53;;;19.80;99.90;;;;;;4996243;28;20457;-69
2022/09/07 01:19:18;;;;;;;;;;;19.80;99.90;;;;;;4998115;28;20069;-69
2022/09/07 01:22:32;;;;;;;16.07;13.70;;;19.80;99.90;;;;;;4997129;28;20048;-69
2022/09/07 01:25:32;;;;;;;12.47;11.17;;;19.70;99.90;;;;;;4951756;28;20050;-69
2022/09/07 01:28:26;;;;;;;15.33;11.03;;;19.70;99.90;;;;;;4997220;28;20125;-69
2022/09/07 01:31:23;;;;;;;14.27;10.27;;;19.60;99.90;;;;;;4997180;28;20050;-70
2022/09/07 01:34:07;;;;;;;14.20;11.00;;;19.50;99.90;;;;;;4997658;28;20058;-70
2022/09/07 01:36:49;;;;;;;14.75;10.48;;;19.50;99.90;;;;;;4997895;28;20104;-70
2022/09/07 01:39:18;;;;;;;13.37;11.67;;;19.50;99.90;;;;;;4997471;28;20566;-70
2022/09/07 01:41:58;;;;;;;15.43;9.93;;;19.40;99.90;;;;;;4997711;28;20068;-70
2022/09/07 01:44:33;;;;;;;10.67;8.00;;;19.40;99.90;;;;;;4997445;28;20069;-70
2022/09/07 01:47:05;;;;;;;13.93;9.90;;;19.30;99.90;;;;;;4997474;28;20057;-70
2022/09/07 01:49:52;;;;;;;18.80;10.20;;;19.30;99.90;;;;;;4997528;28;20050;-70
2022/09/07 01:52:26;;;;;;;16.07;11.30;;;19.20;99.90;;;;;;4997459;28;20076;-70
2022/09/07 01:55:25;;;;;;;12.60;9.80;;;19.20;99.90;;;;;;4996863;28;20490;-70
2022/09/07 01:58:00;;;;;;;11.30;8.33;;;19.10;99.90;;;;;;4997526;28;20158;-70
2022/09/07 02:00:26;;;;;;;11.55;8.18;;;19.10;99.90;;;;;;4997249;28;20054;-70
2022/09/07 02:02:57;;;;;;;14.73;9.70;;;19.00;99.90;;;;;;4996589;28;20103;-70
2022/09/07 02:05:57;;;;;;;13.37;9.47;;;18.70;99.90;;;;;;4995939;28;20046;-70
2022/09/07 02:08:58;;;;;;;13.00;8.93;;;18.70;99.90;;;;;;4996340;28;20050;-70
2022/09/07 02:11:32;;;;;;;10.47;7.87;;;18.60;99.90;;;;;;4993512;28;20070;-70
2022/09/07 02:14:24;;;;;;;10.52;7.82;;;18.50;99.90;;;;;;4997321;28;20050;-70
2022/09/07 02:16:57;;;;;;;11.63;9.27;;;18.50;99.90;;;;;;4996498;28;20050;-69
2022/09/07 02:19:25;;;;;;;15.07;10.37;;;18.40;99.90;;;;;;4996987;28;20402;-69
2022/09/07 02:21:59;;;;;;;13.80;9.80;;;18.40;99.90;;;;;;4996032;28;20060;-69
2022/09/07 02:24:34;;;;;;;12.27;8.73;;;18.30;99.90;;;;;;4996256;28;20054;-69
2022/09/07 02:27:06;;;;;;;12.57;9.15;;;18.30;99.90;;;;;;4995660;28;20108;-69
2022/09/07 02:29:31;;;;;;;10.70;7.80;;;18.20;99.90;;;;;;4995017;28;20046;-69
2022/09/07 02:31:57;;;;;;;11.07;7.70;;;18.20;99.90;;;;;;4995053;28;20487;-69
2022/09/07 02:34:23;;;;;;;10.43;8.63;;;18.20;99.90;;;;;;4995871;28;20086;-69
2022/09/07 02:36:51;;;;;;;12.33;9.03;;;18.20;99.90;;;;;;4995946;28;20051;-69
2022/09/07 02:39:17;;;;;;;11.97;8.43;;;18.10;99.90;;;;;;4994772;28;20054;-69
2022/09/07 02:41:44;;;;;;;10.60;7.90;;;18.10;99.90;;;;;;4996188;28;20125;-70
2022/09/07 02:44:20;;;;;;;9.97;7.90;;;18.10;99.90;;;;;;4995792;28;20038;-69
2022/09/07 02:46:51;;;;;;;11.50;7.23;;;18.00;99.90;;;;;;4994586;28;20054;-69
2022/09/07 02:49:31;;;;;;;9.10;7.00;;;18.00;99.90;;;;;;4995856;28;20080;-69
2022/09/07 02:52:20;;;;;;;8.37;5.90;;;18.00;99.90;;;;;;4995769;28;20058;-69
2022/09/07 02:54:57;;;;;;;9.13;5.60;;;18.00;99.90;;;;;;4996552;28;20039;-69
2022/09/07 02:57:51;;;;;;;7.03;4.63;;;17.90;99.90;;;;;;4995567;28;20086;-69
2022/09/07 03:00:24;;;;;;;8.37;5.50;;;17.90;99.90;;;;;;4995525;28;20050;-69
2022/09/07 03:02:50;;;;;;;7.73;4.57;;;17.90;99.90;;;;;;4996167;28;20093;-69
2022/09/07 03:05:27;;;;;;;8.63;4.30;;;17.90;99.90;;;;;;4994206;28;20447;-69
2022/09/07 03:08:09;;;;;;;7.07;3.93;;;17.90;99.90;;;;;;4995401;28;20053;-69
2022/09/07 03:10:38;;;;;;;6.90;4.33;;;17.90;99.90;;;;;;4995576;28;20050;-69
2022/09/07 03:13:04;;;;;;;8.33;3.83;;;17.80;99.90;;;;;;4995159;28;20042;-69
2022/09/07 03:15:29;;;;;;;8.37;4.03;;;17.80;99.90;;;;;;4995264;28;20049;-69
2022/09/07 03:17:55;;;;;;;7.20;3.87;;;17.80;99.90;;;;;;4995202;28;20054;-69
2022/09/07 03:20:22;;;;;;;7.90;4.30;;;17.80;99.90;;;;;;4994676;28;20156;-69
2022/09/07 03:22:49;;;;;;;8.93;4.07;;;17.80;99.90;;;;;;4994838;28;20058;-69
2022/09/07 03:25:16;;;;;;;7.70;3.80;;;17.80;99.90;;;;;;4995153;28;20478;-69
2022/09/07 03:27:42;;;;;;;7.87;4.10;;;17.80;99.90;;;;;;4995199;28;20090;-69
2022/09/07 03:30:09;;;;;;;7.13;3.83;;;17.80;99.90;;;;;;4995150;28;20336;-69
2022/09/07 03:32:37;;;;;;;7.20;4.07;;;17.70;99.90;;;;;;4994930;28;20046;-69
2022/09/07 03:35:04;;;;;;;10.50;4.20;;;17.80;99.90;;;;;;4994067;28;20054;-69
2022/09/07 03:37:30;;;;;;;9.83;3.83;;;17.70;99.90;;;;;;4994216;28;20053;-69
2022/09/07 03:39:56;;;;;;;6.83;3.83;;;17.70;99.90;;;;;;4994721;28;20054;-69
2022/09/07 03:42:22;;;;;;;6.53;3.70;;;17.70;99.90;;;;;;4994758;28;20112;-69
2022/09/07 03:44:51;;;;;;;6.00;3.30;;;17.60;99.90;;;;;;4994665;28;20034;-69
2022/09/07 03:47:16;;;;;;;9.60;3.83;;;17.60;99.90;;;;;;4994645;28;20054;-70
2022/09/07 03:49:42;;;;;;;5.63;3.27;;;17.60;99.90;;;;;;4994643;28;20052;-69
2022/09/07 03:52:09;;;;;;;5.73;3.40;;;17.60;99.90;;;;;;4994531;28;20050;-69
2022/09/07 03:54:34;;;;;;;7.10;3.70;;;17.60;99.90;;;;;;4994472;28;20050;-69
2022/09/07 03:57:00;;;;;;;5.77;3.33;;;17.60;99.90;;;;;;4993478;28;20062;-69
2022/09/07 03:59:26;;;;;;;6.20;3.20;;;17.50;99.90;;;;;;4994382;28;20086;-69
2022/09/07 04:01:52;;;;;;;5.33;3.07;;;17.50;99.90;;;;;;4994366;28;20141;-70
2022/09/07 04:04:17;;;;;;;6.23;3.30;;;17.50;99.90;;;;;;4994321;28;20475;-69
2022/09/07 04:06:43;;;;;;;10.13;3.97;;;17.50;99.90;;;;;;4994849;28;20042;-69
2022/09/07 04:09:12;;;;;;;7.13;3.50;;;17.50;99.90;;;;;;4993699;28;20046;-70
2022/09/07 04:11:39;;;;;;;5.30;3.40;;;17.50;99.90;;;;;;4994308;28;20136;-69
2022/09/07 04:14:06;;;;;;;6.97;3.67;;;17.50;99.90;;;;;;4994220;28;20089;-69
2022/09/07 04:16:32;;;;;;;6.53;3.20;;;17.50;99.90;;;;;;4977158;28;20050;-70
2022/09/07 04:18:58;;;;;;;6.07;3.37;;;17.50;99.90;;;;;;4993001;28;20096;-70
2022/09/07 04:21:25;;;;;;;10.07;3.63;;;17.50;99.90;;;;;;4994170;28;20046;-69
2022/09/07 04:23:52;;;;;;;8.93;3.20;;;17.50;99.90;;;;;;4993628;28;20094;-69
2022/09/07 04:26:21;;;;;;;9.47;4.03;;;17.50;99.90;;;;;;4994074;28;20494;-69
2022/09/07 04:28:47;;;;;;;7.20;3.20;;;17.50;99.90;;;;;;4994026;28;20049;-69
2022/09/07 04:31:14;;;;;;;8.17;3.77;;;17.50;99.90;;;;;;4994022;28;20072;-70
2022/09/07 04:33:41;;;;;;;9.40;3.93;;;17.60;99.90;;;;;;4994088;28;20047;-69
2022/09/07 04:36:07;;;;;;;8.50;3.40;;;17.60;99.90;;;;;;4993060;28;20055;-69
2022/09/07 04:38:33;;;;;;;8.67;3.27;;;17.60;99.90;;;;;;4993999;28;20050;-69
2022/09/07 04:41:05;;;;;;;7.90;3.40;;;17.60;99.90;;;;;;4994802;28;20144;-69
2022/09/07 04:43:31;;;;;;;10.30;3.77;;;17.60;99.90;;;;;;4994601;28;20058;-70
2022/09/07 04:46:02;;;;;;;9.67;3.70;;;17.60;99.90;;;;;;4993893;28;20103;-70
2022/09/07 04:48:27;;;;;;;8.13;3.97;;;17.60;99.90;;;;;;4994024;28;20046;-69
2022/09/07 04:50:53;;;;;;;8.07;4.17;;;17.50;99.90;;;;;;4997487;28;20112;-69
2022/09/07 04:53:19;;;;;;;12.77;4.60;;;17.50;99.90;;;;;;4997974;28;20042;-69
2022/09/07 04:55:45;;;;;;;12.27;4.63;;;17.50;99.90;;;;;;4997887;28;20122;-69
2022/09/07 04:58:10;;;;;;;7.13;4.30;;;17.50;99.90;;;;;;4997082;28;20042;-70
2022/09/07 05:00:38;;;;;;;12.20;4.87;;;17.50;99.90;;;;;;4998056;28;20104;-69
2022/09/07 05:03:04;;;;;;;7.77;4.40;;;17.60;99.90;;;;;;4996750;28;20061;-69
2022/09/07 05:05:30;;;;;;;8.93;4.70;;;17.60;99.90;;;;;;4997680;28;20038;-70
2022/09/07 05:07:55;;;;;;;10.17;4.63;;;17.60;99.90;;;;;;4997673;28;20053;-70
2022/09/07 05:10:21;;;;;;;8.17;4.80;;;17.60;99.90;;;;;;4997531;28;20224;-70
2022/09/07 05:12:47;;;;;;;11.30;4.87;;;17.60;99.90;;;;;;4997571;28;20042;-68
2022/09/07 05:15:12;;;;;;;8.77;4.93;;;17.60;99.90;;;;;;4998574;28;20043;-68
2022/09/07 05:17:38;;;;;;;9.53;4.90;;;17.70;99.90;;;;;;4998282;28;20050;-68
2022/09/07 05:20:04;;;;;;;9.07;4.93;;;17.70;99.90;;;;;;4997438;28;20055;-68
2022/09/07 05:22:30;;;;;;;8.30;5.00;;;17.70;99.90;;;;;;4997239;28;20514;-68
2022/09/07 05:24:56;;;;;;;11.20;5.20;;;17.70;99.90;;;;;;4996985;28;20133;-70
2022/09/07 05:27:21;;;;;;;9.03;5.20;;;17.70;99.90;;;;;;4997280;28;20050;-69
2022/09/07 05:29:47;;;;;;;7.40;5.27;;;17.70;99.90;;;;;;4997315;28;20137;-68
2022/09/07 05:32:13;;;;;;;10.90;5.70;;;17.70;99.90;;;;;;4997232;28;20133;-69
2022/09/07 05:34:38;;;;;;;9.87;6.17;;;17.60;99.90;;;;;;4997245;28;20038;-68
2022/09/07 05:37:04;;;;;;;9.40;5.70;;;17.60;99.90;;;;;;4997091;28;20499;-68
2022/09/07 05:39:31;;;;;;;9.87;6.23;;;17.60;99.90;;;;;;4997014;28;20446;-68
2022/09/07 05:41:56;;;;;;;10.00;7.10;;;17.60;99.90;;;;;;4997790;28;20045;-69
2022/09/07 05:44:22;;;;;;;9.53;6.80;;;17.70;99.90;;;;;;4997624;28;20366;-68
2022/09/07 05:46:49;;;;;;;8.50;6.50;;;17.70;99.90;;;;;;4996837;28;20042;-68
2022/09/07 05:49:15;;;;;;;9.30;6.50;;;17.70;99.90;;;;;;4996781;28;20053;-68
2022/09/07 05:51:41;;;;;;;9.00;6.97;;;17.70;99.90;;;;;;4997071;28;20046;-68
2022/09/07 05:54:07;;;;;;;8.80;6.90;;;17.70;99.90;;;;;;4995507;28;20043;-69
2022/09/07 05:56:34;;;;;;;10.17;7.50;;;17.70;99.90;;;;;;4997172;28;20133;-68
2022/09/07 05:59:00;;;;;;;10.37;7.27;;;17.70;99.90;;;;;;4996730;28;20069;-69
2022/09/07 06:01:26;;;;;;;10.03;7.83;;;17.80;99.90;;;;;;4996281;28;20459;-69
2022/09/07 06:03:51;;;;;;;10.53;7.47;;;17.70;99.90;;;;;;4996552;28;20124;-69
2022/09/07 06:06:18;;;;;;;10.73;7.37;;;17.80;99.90;;;;;;4996530;28;20047;-69
2022/09/07 06:08:51;;;;;;;9.27;8.17;;;17.90;99.90;;;;;;4996526;28;20108;-69
2022/09/07 06:11:22;;;;;;;10.50;7.70;;;17.90;99.90;;;;;;4996485;28;20050;-68
2022/09/07 06:13:48;;;;;;;8.73;7.30;;;17.90;99.90;;;;;;4996408;28;20042;-69
2022/09/07 06:16:15;;;;;;;9.43;8.53;;;17.90;99.90;;;;;;4996379;28;20054;-68
2022/09/07 06:18:43;;;;;;;10.40;8.30;;;17.90;99.90;;;;;;4997165;28;20046;-68
2022/09/07 06:21:13;;;;;;;11.27;8.53;;;17.80;99.90;;;;;;4996341;28;20042;-69
2022/09/07 06:23:41;;;;;;;11.00;9.00;;;17.80;99.90;;;;;;4997470;28;20081;-68
2022/09/07 06:26:07;;;;;;;10.87;9.77;;;17.80;99.90;;;;;;4996074;28;20045;-71
2022/09/07 06:28:35;;;;;;;11.37;10.17;;;17.80;99.90;;;;;;4996662;28;20060;-69
2022/09/07 06:31:12;;;;;;;11.83;10.63;;;17.80;99.90;;;;;;4996121;28;20058;-68
2022/09/07 06:33:40;;;;;;;12.87;11.33;;;17.90;99.90;;;;;;4996176;28;20082;-69
2022/09/07 06:36:10;;;;;;;13.87;12.33;;;17.90;99.90;;;;;;4996329;28;20042;-68
2022/09/07 06:38:37;;;;;;;16.30;13.73;;;17.90;99.90;;;;;;4996646;28;20054;-69
2022/09/07 06:41:04;;;;;;;14.20;12.80;;;17.90;99.90;;;;;;4996037;28;20046;-69
2022/09/07 06:43:30;;;;;;;16.80;15.07;;;17.90;99.90;;;;;;4996214;28;20046;-69
2022/09/07 06:45:57;;;;;;;15.93;14.33;;;17.90;99.90;;;;;;4995872;28;20506;-70
2022/09/07 06:48:24;;;;;;;15.40;13.63;;;17.90;99.90;;;;;;4994872;28;20621;-70
2022/09/07 06:51:01;;;;;;;17.23;15.43;;;17.90;99.90;;;;;;4994641;28;20038;-70
2022/09/07 06:53:29;;;;;;;16.23;14.60;;;17.90;99.90;;;;;;4995344;28;20050;-70
2022/09/07 06:55:55;;;;;;;15.37;13.90;;;17.90;99.90;;;;;;4995720;28;20042;-69
2022/09/07 06:58:23;;;;;;;18.03;16.13;;;17.90;99.90;;;;;;4978451;28;20156;-69
2022/09/07 07:00:49;;;;;;;16.87;15.27;;;17.90;99.90;;;;;;4994627;28;20097;-69
2022/09/07 07:03:15;;;;;;;19.87;15.50;;;17.90;99.90;;;;;;4995818;28;20078;-70
2022/09/07 07:05:48;;;;;;;18.43;16.57;;;18.00;99.90;;;;;;4995082;28;20382;-70
2022/09/07 07:08:14;;;;;;;18.00;15.83;;;18.00;99.90;;;;;;4995946;28;20085;-71
2022/09/07 07:10:40;;;;;;;18.23;16.53;;;18.10;99.90;;;;;;4995979;28;20082;-70
2022/09/07 07:13:06;;;;;;;19.03;16.93;;;18.10;99.90;;;;;;4996127;28;20533;-70
2022/09/07 07:15:32;;;;;;;18.27;16.37;;;18.20;99.90;;;;;;4994576;28;20054;-69
2022/09/07 07:17:57;;;;;;;18.50;16.70;;;18.20;99.90;;;;;;4995280;28;20046;-69
2022/09/07 07:20:23;;;;;;;17.83;16.00;;;18.40;99.90;;;;;;4995183;28;20050;-69
2022/09/07 07:22:51;;;;;;;20.07;18.10;;;18.50;99.90;;;;;;4995384;28;20058;-69
2022/09/07 07:25:17;;;;;;;19.27;17.30;;;18.60;99.90;;;;;;4994230;28;20085;-69
2022/09/07 07:27:44;;;;;;;17.90;16.10;;;18.70;99.90;;;;;;4995068;28;20129;-70
2022/09/07 07:30:12;;;;;;;19.80;17.93;;;19.00;99.90;;;;;;4993894;28;20383;-70
2022/09/07 07:32:38;;;;;;;19.53;17.47;;;19.10;99.90;;;;;;4995003;28;20057;-70
2022/09/07 07:35:06;;;;;;;19.40;17.40;;;19.20;99.90;;;;;;4995074;28;20050;-70
2022/09/07 07:37:32;;;;;;;19.07;17.10;;;19.30;99.90;;;;;;4994934;28;20123;-70
2022/09/07 07:39:59;;;;;;;18.50;16.77;;;19.70;99.90;;;;;;4994899;28;20053;-70
2022/09/07 07:42:25;;;;;;;17.27;15.53;;;20.00;99.90;;;;;;4994828;28;20046;-70
2022/09/07 07:44:51;;;;;;;16.90;15.10;;;20.30;99.90;;;;;;4994775;28;20045;-70
2022/09/07 07:47:16;;;;;;;18.37;16.53;;;20.60;99.90;;;;;;4994808;28;20050;-70
2022/09/07 07:49:42;;;;;;;19.50;15.80;;;20.80;99.90;;;;;;4995793;28;20054;-70
2022/09/07 07:52:08;;;;;;;17.80;15.90;;;20.90;99.90;;;;;;4994732;28;20510;-70
2022/09/07 07:54:37;;;;;;;18.87;16.97;;;20.90;99.90;;;;;;4993695;28;20054;-70
2022/09/07 07:57:04;;;;;;;18.73;16.73;;;20.80;99.90;;;;;;4994675;28;20054;-69
2022/09/07 07:59:29;;;;;;;18.43;16.63;;;20.90;99.90;;;;;;4995124;28;20085;-70
2022/09/07 08:01:55;;;;;;;18.80;16.87;;;21.00;99.90;;;;;;4994275;28;20051;-70
2022/09/07 08:04:21;;;;;;;18.00;16.30;;;21.10;99.90;;;;;;4993245;28;20046;-70
2022/09/07 08:06:48;;;;;;;16.77;14.87;;;21.20;99.90;;;;;;4993428;28;20128;-69
2022/09/07 08:09:13;;;;;;;16.10;14.43;;;21.30;99.90;;;;;;4977329;28;20399;-70
2022/09/07 08:11:40;;;;;;;17.60;15.80;;;21.30;99.90;;;;;;4994393;28;20050;-70
2022/09/07 08:14:07;;;;;;;15.77;13.90;;;21.30;99.90;;;;;;4993491;28;20057;-68
2022/09/07 08:16:33;;;;;;;17.87;14.60;;;21.20;99.90;;;;;;4994292;28;20129;-69
2022/09/07 08:19:00;;;;;;;16.47;14.90;;;21.30;99.90;;;;;;4994339;28;20112;-68
2022/09/07 08:21:26;;;;;;;15.83;14.13;;;21.30;99.90;;;;;;4994267;28;20545;-69
2022/09/07 08:23:51;;;;;;;14.40;13.00;;;21.30;99.90;;;;;;4993710;28;20089;-69
2022/09/07 08:26:17;;;;;;;14.00;12.47;;;21.40;99.90;;;;;;4994216;28;20137;-68
2022/09/07 08:28:44;;;;;;;14.50;13.00;;;21.30;99.90;;;;;;4994114;28;20046;-72
2022/09/07 08:31:13;;;;;;;13.40;12.10;;;21.30;99.90;;;;;;4994957;28;20068;-68
2022/09/07 08:33:39;;;;;;;13.50;12.07;;;21.30;99.90;;;;;;4994109;28;20089;-68
2022/09/07 08:36:09;;;;;;;15.17;12.63;;;21.30;99.90;;;;;;4992847;28;20096;-70
2022/09/07 08:38:36;;;;;;;12.47;11.27;;;21.20;99.90;;;;;;4993980;28;20050;-68
2022/09/07 08:41:29;;;;;;;12.17;10.90;;;21.10;99.90;;;;;;4993793;28;20509;-68
2022/09/07 08:44:02;;;;;;;14.27;12.03;;;21.00;99.90;;;;;;4994335;28;20192;-69
2022/09/07 08:46:44;;;;;;;12.20;11.00;;;21.00;99.90;;;;;;4994017;28;20483;-68
2022/09/07 08:49:27;;;;;;;12.07;10.70;;;21.00;99.90;;;;;;4994140;28;20118;-69
2022/09/07 08:52:09;;;;;;;10.27;9.27;;;21.10;99.90;;;;;;4994060;28;20055;-73
2022/09/07 08:54:36;;;;;;;11.47;10.27;;;21.20;99.90;;;;;;4993319;28;20057;-69
2022/09/07 08:57:03;;;;;;;11.93;10.37;;;21.30;99.90;;;;;;4977135;28;20069;-70
2022/09/07 08:59:47;;;;;;;10.53;9.33;;;21.40;99.90;;;;;;4993870;28;20059;-72
2022/09/07 09:02:16;;;;;;;11.32;9.50;;;21.50;99.90;;;;;;4993905;28;20081;-73
2022/09/07 09:04:42;;;;;;;10.30;9.30;;;21.50;99.90;;;;;;4993099;28;20050;-72
2022/09/07 09:07:16;;;;;;;10.70;8.60;;;21.50;99.90;;;;;;4993886;28;20197;-72
2022/09/07 09:09:45;;;;;;;11.05;9.32;;;21.50;99.90;;;;;;4994441;28;20184;-72
2022/09/07 09:12:25;;;;;;;11.30;8.60;;;21.50;99.90;;;;;;4994055;28;20058;-73
2022/09/07 09:15:29;;;;;;;10.30;9.20;;;21.50;99.90;;;;;;4993829;28;20546;-73
2022/09/07 09:18:01;;;;;;;10.17;9.00;;;21.60;99.90;;;;;;4987011;28;20061;-71
2022/09/07 09:20:48;;;;;;;9.57;8.63;;;21.60;99.90;;;;;;4994370;28;20054;-72
2022/09/07 09:23:16;;;;;;;9.17;8.13;;;21.60;99.90;;;;;;4993964;28;20065;-72
2022/09/07 09:25:54;;;;;;;9.30;7.10;;;21.60;99.90;;;;;;4993619;28;20046;-74
2022/09/07 09:28:20;;;;;;;8.17;7.30;;;21.70;99.90;;;;;;4994279;28;20054;-71
2022/09/07 09:30:49;;;;;;;8.03;6.40;;;21.70;99.90;;;;;;4993642;28;20046;-72
2022/09/07 09:33:27;;;;;;;9.10;5.63;;;21.70;99.90;;;;;;4993626;28;20471;-75
2022/09/07 09:36:00;;;;;;;6.60;4.50;;;21.60;99.90;;;;;;4994096;28;20042;-74
2022/09/07 09:38:31;;;;;;;6.90;3.93;;;21.60;99.90;;;;;;4997143;28;20046;-70
2022/09/07 09:41:09;;;;;;;4.77;3.13;;;21.60;99.90;;;;;;4997201;28;20625;-69
2022/09/07 09:43:51;;;;;;;5.30;3.10;;;21.70;99.90;;;;;;4997083;28;20047;-71
2022/09/07 09:46:30;;;;;;;6.03;3.80;;;21.80;99.90;;;;;;4996567;28;20050;-71
2022/09/07 09:49:21;;;;;;;5.47;3.17;;;21.80;99.90;;;;;;4997513;28;20050;-71
2022/09/07 09:51:55;;;;;;;5.07;3.00;;;21.80;99.90;;;;;;4997502;28;20046;-72
2022/09/07 09:54:29;;;;;;;6.93;3.15;;;21.90;99.90;;;;;;4997358;28;20406;-72
2022/09/07 09:56:55;;;;;;;4.25;2.53;;;21.80;99.90;;;;;;4997146;28;20043;-71
2022/09/07 09:59:30;;;;;;;4.50;2.50;;;21.80;99.90;;;;;;4997440;28;20047;-71
2022/09/07 10:01:56;;;;;;;4.05;2.67;;;21.80;99.90;;;;;;4996831;28;20042;-70
2022/09/07 10:04:33;;;;;;;7.27;3.27;;;21.80;99.90;;;;;;4996928;28;20180;-69
2022/09/07 10:07:21;;;;;;;4.60;2.67;;;21.70;99.90;;;;;;4996019;28;20394;-71
2022/09/07 10:09:52;;;;;;;6.07;2.93;;;21.70;99.90;;;;;;4986743;28;20483;-71
2022/09/07 10:12:31;;;;;;;6.10;3.30;;;21.70;99.90;;;;;;4996634;28;20451;-76
2022/09/07 10:14:59;;;;;;;5.67;3.27;;;21.70;99.90;;;;;;4996560;28;20042;-70
2022/09/07 10:17:31;;;;;;;5.10;2.73;;;21.70;99.90;;;;;;4996440;28;20050;-75
2022/09/07 10:20:11;;;;;;;5.20;2.77;;;21.60;99.90;;;;;;4996012;28;20391;-76
2022/09/07 10:22:39;;;;;;;5.50;3.10;;;21.60;99.90;;;;;;4996013;28;20117;-75
2022/09/07 10:25:26;;;;;;;5.23;3.10;;;21.60;99.90;;;;;;4996211;28;20051;-71
2022/09/07 10:28:08;;;;;;;4.50;2.50;;;21.70;99.90;;;;;;4996294;28;20050;-75
2022/09/07 10:30:46;;;;;;;5.07;2.50;;;21.70;99.90;;;;;;4996205;28;20107;-76
2022/09/07 10:33:24;;;;;;;4.33;2.70;;;21.70;99.90;;;;;;4995938;28;20602;-71
2022/09/07 10:36:35;;;;;;;4.07;2.70;;;21.70;99.90;;;;;;4996078;28;20049;-71
2022/09/07 10:39:05;;;;;;;4.70;2.23;;;21.70;99.90;;;;;;4981181;28;20080;-70
2022/09/07 10:42:01;;;;;;;5.03;2.40;;;21.70;99.90;;;;;;4996045;28;20054;-73
2022/09/07 10:44:29;;;;;;;3.83;2.10;;;21.80;99.90;;;;;;4995257;28;20454;-71
2022/09/07 10:47:01;;;;;;;5.10;2.30;;;21.80;99.90;;;;;;4995451;28;20454;-70
2022/09/07 10:50:18;;;;;;;3.47;1.80;;;21.80;99.90;;;;;;4996642;28;20117;-73
2022/09/07 10:52:51;;;;;;;3.37;1.90;;;21.90;99.90;;;;;;4935711;29;20598;-72
2022/09/07 10:55:31;;;;;;;4.27;2.27;;;21.80;99.90;;;;;;4992927;28;20062;-72
2022/09/07 10:58:44;;;;;;;5.47;2.37;;;21.80;99.90;;;;;;4996517;28;20042;-70
2022/09/07 11:01:31;;;;;;;4.93;2.80;;;21.80;99.90;;;;;;4935596;29;20083;-70
2022/09/07 11:04:22;;;;;;;4.07;2.27;;;21.90;99.90;;;;;;4935379;29;20054;-71
2022/09/07 11:06:51;;;;;;;5.47;2.73;;;22.00;99.90;;;;;;4982248;28;20137;-72
2022/09/07 11:09:37;;;;;;;5.00;2.70;;;22.10;99.90;;;;;;4995465;28;20395;-71
2022/09/07 11:12:18;;;;;;;6.13;3.33;;;22.10;99.90;;;;;;4995779;28;20042;-72
2022/09/07 11:15:02;;;;;;;4.87;2.67;;;22.30;99.90;;;;;;4995340;28;20086;-74
2022/09/07 11:17:30;;;;;;;3.93;2.33;;;22.30;99.90;;;;;;4995319;28;20073;-75
2022/09/07 11:20:31;;;;;;;5.07;2.30;;;22.40;99.90;;;;;;4994909;28;20514;-73
2022/09/07 11:23:08;;;;;;;5.77;2.40;;;22.40;99.90;;;;;;4994192;28;20058;-78
2022/09/07 11:25:56;;;;;;;4.60;2.10;;;22.40;99.90;;;;;;4994786;28;20391;-72
2022/09/07 11:28:50;;;;;;;4.23;2.30;;;22.60;99.90;;;;;;4995896;28;20372;-80
2022/09/07 11:31:23;;;;;;;3.83;2.00;;;22.80;99.90;;;;;;4995006;28;20129;-74
2022/09/07 11:33:59;;;;;;;5.37;2.63;;;23.00;99.90;;;;;;4994277;28;20046;-72
2022/09/07 11:36:27;;;;;;;5.10;2.03;;;23.10;99.90;;;;;;4994791;28;20120;-73
2022/09/07 11:38:59;;;;;;;4.10;2.03;;;23.20;99.90;;;;;;4993590;28;20049;-78
2022/09/07 11:41:28;;;;;;;4.43;1.93;;;23.20;99.90;;;;;;4995661;28;20050;-76
2022/09/07 11:44:01;;;;;;;3.80;1.70;;;23.10;99.90;;;;;;4994991;28;20133;-71
2022/09/07 11:46:51;;;;;;;3.27;1.80;;;23.10;99.90;;;;;;4994644;28;20053;-73
2022/09/07 11:49:22;;;;;;;3.60;1.80;;;23.00;99.90;;;;;;4995439;28;20077;-73
2022/09/07 11:52:02;;;;;;;3.53;1.60;;;23.10;99.90;;;;;;4994600;28;20050;-73
2022/09/07 11:54:27;;;;;;;3.17;1.70;;;23.10;99.90;;;;;;4994608;28;20077;-73
2022/09/07 11:57:22;;;;;;;3.60;1.70;;;23.20;99.90;;;;;;4994455;28;20093;-72
2022/09/07 12:00:21;;;;;;;3.08;1.70;;;23.20;99.90;;;;;;4993391;28;20050;-74
2022/09/07 12:03:22;;;;;;;3.83;1.97;;;23.30;99.90;;;;;;4989211;28;20066;-73
2022/09/07 12:06:21;;;;;;;4.23;2.43;;;;;;;;;;4994318;28;20096;-73
2022/09/07 12:09:05;;;;;;;3.70;1.93;;;23.40;99.90;;;;;;4961687;28;20569;-73
2022/09/07 12:11:43;;;;;;;4.75;2.00;;;23.40;99.90;;;;;;4993361;28;20062;-72
2022/09/07 12:14:27;;;;;;;3.40;1.90;;;23.40;99.90;;;;;;4993524;28;20483;-72
2022/09/07 12:17:04;;;;;;;4.43;2.33;;;23.40;99.90;;;;;;4994785;28;20054;-71
2022/09/07 12:19:31;;;;;;;3.70;1.83;;;;;;;;;;4994013;28;20125;-71
2022/09/07 12:22:00;;;;;;;4.67;2.40;;;;;;;;;;4992959;28;20473;-72
2022/09/07 12:24:41;;;;;;;4.70;2.40;;;23.50;99.90;;;;;;4995214;28;20053;-71
2022/09/07 12:27:19;;;;;;;4.50;2.10;;;23.50;99.90;;;;;;4993881;28;20430;-72
2022/09/07 12:29:51;;;;;;;4.53;2.10;;;23.50;99.90;;;;;;4994001;28;20471;-71
2022/09/07 12:32:55;;;;;;;4.93;2.30;;;23.40;99.90;;;;;;4994071;28;20046;-71
2022/09/07 12:35:29;;;;;;;3.23;1.73;;;23.30;99.90;;;;;;4933904;29;20044;-72
2022/09/07 12:37:56;;;;;;;3.72;1.67;;;23.20;99.90;;;;;;4982681;28;20137;-71
2022/09/07 12:40:28;;;;;;;4.80;1.67;;;23.10;99.90;;;;;;4993792;28;20054;-72
2022/09/07 12:43:12;;;;;;;3.20;1.80;;;23.20;99.90;;;;;;4993914;28;20054;-69
2022/09/07 12:45:38;;;;;;;4.25;2.08;;;23.30;99.90;;;;;;4993800;28;20046;-71
2022/09/07 12:48:10;;;;;;;4.67;1.90;;;23.30;99.90;;;;;;4994050;28;20042;-71
2022/09/07 12:50:58;;;;;;;4.07;2.00;;;23.20;99.90;;;;;;4994210;28;20093;-71
2022/09/07 12:53:34;;;;;;;4.17;2.43;;;23.20;99.90;;;;;;4993907;28;20042;-71
2022/09/07 12:56:24;;;;;;;5.47;2.20;;;23.10;99.90;;;;;;4993832;28;20471;-77
2022/09/07 12:59:18;;;;;;;3.87;1.90;;;23.10;99.90;;;;;;4994374;28;20090;-76
2022/09/07 13:02:02;;;;;;;4.13;2.30;;;23.10;99.90;;;;;;4994584;28;20093;-77
2022/09/07 13:04:58;;;;;;;3.87;2.60;;;23.10;99.90;;;;;;4994189;28;20050;-77
2022/09/07 13:07:38;;;;;;;3.90;1.87;;;;;;;;;;4994292;28;20290;-77
2022/09/07 13:10:35;;;;;;;3.93;2.13;;;23.00;99.90;;;;;;4994936;28;20094;-76